sensor_id;sensor_type;location;lat;lon;timestamp;P1;durP1;ratioP1;P2;durP2;ratioP2
56830;SDS011;42713;42.676;23.352;2023-12-20T00:00:16;101.13;;;48.03;;
56830;SDS011;42713;42.676;23.352;2023-12-20T00:02:42;93.85;;;45.92;;
56830;SDS011;42713;42.676;23.352;2023-12-20T00:05:12;63.33;;;34.13;;
56830;SDS011;42713;42.676;23.352;2023-12-20T00:07:38;71.00;;;36.13;;
56830;SDS011;42713;42.676;23.352;2023-12-20T00:10:04;72.97;;;38.88;;
56830;SDS011;42713;42.676;23.352;2023-12-20T00:12:30;91.20;;;41.50;;
56830;SDS011;42713;42.676;23.352;2023-12-20T00:14:56;85.63;;;39.55;;
56830;SDS011;42713;42.676;23.352;2023-12-20T00:17:22;95.25;;;46.35;;
56830;SDS011;42713;42.676;23.352;2023-12-20T00:19:48;100.30;;;53.05;;
56830;SDS011;42713;42.676;23.352;2023-12-20T00:22:14;81.78;;;42.33;;
56830;SDS011;42713;42.676;23.352;2023-12-20T00:24:39;62.88;;;31.77;;
56830;SDS011;42713;42.676;23.352;2023-12-20T00:27:05;55.05;;;28.08;;
56830;SDS011;42713;42.676;23.352;2023-12-20T00:29:30;47.97;;;25.15;;
56830;SDS011;42713;42.676;23.352;2023-12-20T00:31:55;45.08;;;23.83;;
56830;SDS011;42713;42.676;23.352;2023-12-20T00:34:21;50.45;;;25.40;;
56830;SDS011;42713;42.676;23.352;2023-12-20T00:36:47;62.78;;;28.52;;
56830;SDS011;42713;42.676;23.352;2023-12-20T00:39:12;68.32;;;34.10;;
56830;SDS011;42713;42.676;23.352;2023-12-20T00:41:38;75.00;;;35.85;;
56830;SDS011;42713;42.676;23.352;2023-12-20T00:44:03;72.90;;;35.50;;
56830;SDS011;42713;42.676;23.352;2023-12-20T00:46:29;68.25;;;34.58;;
56830;SDS011;42713;42.676;23.352;2023-12-20T00:48:54;68.93;;;33.45;;
56830;SDS011;42713;42.676;23.352;2023-12-20T00:51:20;69.25;;;33.20;;
56830;SDS011;42713;42.676;23.352;2023-12-20T00:53:47;57.38;;;32.13;;
56830;SDS011;42713;42.676;23.352;2023-12-20T00:56:14;63.13;;;31.42;;
56830;SDS011;42713;42.676;23.352;2023-12-20T00:58:39;64.75;;;32.55;;
56830;SDS011;42713;42.676;23.352;2023-12-20T01:01:05;57.03;;;29.77;;
56830;SDS011;42713;42.676;23.352;2023-12-20T01:03:30;56.40;;;28.00;;
56830;SDS011;42713;42.676;23.352;2023-12-20T01:05:56;55.17;;;29.45;;
56830;SDS011;42713;42.676;23.352;2023-12-20T01:08:21;55.13;;;27.70;;
56830;SDS011;42713;42.676;23.352;2023-12-20T01:10:47;54.63;;;26.70;;
56830;SDS011;42713;42.676;23.352;2023-12-20T01:13:13;55.05;;;27.20;;
56830;SDS011;42713;42.676;23.352;2023-12-20T01:15:38;55.38;;;27.95;;
56830;SDS011;42713;42.676;23.352;2023-12-20T01:18:04;56.63;;;28.73;;
56830;SDS011;42713;42.676;23.352;2023-12-20T01:20:29;52.15;;;27.65;;
56830;SDS011;42713;42.676;23.352;2023-12-20T01:22:55;52.10;;;26.38;;
56830;SDS011;42713;42.676;23.352;2023-12-20T01:25:20;52.60;;;28.15;;
56830;SDS011;42713;42.676;23.352;2023-12-20T01:27:46;52.78;;;27.42;;
56830;SDS011;42713;42.676;23.352;2023-12-20T01:30:11;56.25;;;28.67;;
56830;SDS011;42713;42.676;23.352;2023-12-20T01:32:37;51.90;;;27.08;;
56830;SDS011;42713;42.676;23.352;2023-12-20T01:35:02;56.70;;;28.13;;
56830;SDS011;42713;42.676;23.352;2023-12-20T01:37:28;51.60;;;27.02;;
56830;SDS011;42713;42.676;23.352;2023-12-20T01:39:54;51.03;;;26.92;;
56830;SDS011;42713;42.676;23.352;2023-12-20T01:42:20;55.42;;;27.50;;
56830;SDS011;42713;42.676;23.352;2023-12-20T01:44:45;51.28;;;27.20;;
56830;SDS011;42713;42.676;23.352;2023-12-20T01:47:10;54.58;;;27.52;;
56830;SDS011;42713;42.676;23.352;2023-12-20T01:49:37;53.92;;;28.30;;
56830;SDS011;42713;42.676;23.352;2023-12-20T01:52:02;60.42;;;28.23;;
56830;SDS011;42713;42.676;23.352;2023-12-20T01:54:28;111.25;;;41.05;;
56830;SDS011;42713;42.676;23.352;2023-12-20T01:56:54;58.88;;;28.73;;
56830;SDS011;42713;42.676;23.352;2023-12-20T01:59:20;52.05;;;27.15;;
56830;SDS011;42713;42.676;23.352;2023-12-20T02:01:46;59.17;;;27.85;;
56830;SDS011;42713;42.676;23.352;2023-12-20T02:04:12;56.72;;;28.33;;
56830;SDS011;42713;42.676;23.352;2023-12-20T02:06:38;58.42;;;27.80;;
56830;SDS011;42713;42.676;23.352;2023-12-20T02:09:06;50.15;;;26.02;;
56830;SDS011;42713;42.676;23.352;2023-12-20T02:11:32;51.75;;;27.85;;
56830;SDS011;42713;42.676;23.352;2023-12-20T02:13:58;55.92;;;27.33;;
56830;SDS011;42713;42.676;23.352;2023-12-20T02:16:24;54.90;;;28.13;;
56830;SDS011;42713;42.676;23.352;2023-12-20T02:18:49;56.83;;;29.08;;
56830;SDS011;42713;42.676;23.352;2023-12-20T02:21:14;58.08;;;31.45;;
56830;SDS011;42713;42.676;23.352;2023-12-20T02:23:40;90.78;;;43.88;;
56830;SDS011;42713;42.676;23.352;2023-12-20T02:26:05;111.05;;;52.25;;
56830;SDS011;42713;42.676;23.352;2023-12-20T02:28:32;125.15;;;59.88;;
56830;SDS011;42713;42.676;23.352;2023-12-20T02:30:58;102.30;;;52.40;;
56830;SDS011;42713;42.676;23.352;2023-12-20T02:33:23;149.05;;;68.28;;
56830;SDS011;42713;42.676;23.352;2023-12-20T02:35:49;79.05;;;40.30;;
56830;SDS011;42713;42.676;23.352;2023-12-20T02:38:15;132.30;;;65.47;;
56830;SDS011;42713;42.676;23.352;2023-12-20T02:40:40;138.05;;;68.43;;
56830;SDS011;42713;42.676;23.352;2023-12-20T02:43:06;153.93;;;71.93;;
56830;SDS011;42713;42.676;23.352;2023-12-20T02:45:31;114.45;;;56.08;;
56830;SDS011;42713;42.676;23.352;2023-12-20T02:47:57;119.50;;;57.33;;
56830;SDS011;42713;42.676;23.352;2023-12-20T02:50:22;130.57;;;62.55;;
56830;SDS011;42713;42.676;23.352;2023-12-20T02:52:48;128.60;;;62.72;;
56830;SDS011;42713;42.676;23.352;2023-12-20T02:55:13;118.05;;;59.15;;
56830;SDS011;42713;42.676;23.352;2023-12-20T02:57:39;122.40;;;58.70;;
56830;SDS011;42713;42.676;23.352;2023-12-20T03:00:08;127.68;;;59.95;;
56830;SDS011;42713;42.676;23.352;2023-12-20T03:02:35;126.90;;;63.10;;
56830;SDS011;42713;42.676;23.352;2023-12-20T03:05:01;138.70;;;67.63;;
56830;SDS011;42713;42.676;23.352;2023-12-20T03:07:27;141.18;;;66.43;;
56830;SDS011;42713;42.676;23.352;2023-12-20T03:09:53;148.85;;;74.65;;
56830;SDS011;42713;42.676;23.352;2023-12-20T03:12:19;146.35;;;72.95;;
56830;SDS011;42713;42.676;23.352;2023-12-20T03:14:44;161.20;;;74.40;;
56830;SDS011;42713;42.676;23.352;2023-12-20T03:17:10;162.90;;;76.20;;
56830;SDS011;42713;42.676;23.352;2023-12-20T03:19:35;160.38;;;77.72;;
56830;SDS011;42713;42.676;23.352;2023-12-20T03:22:01;155.13;;;75.43;;
56830;SDS011;42713;42.676;23.352;2023-12-20T03:24:27;163.20;;;76.32;;
56830;SDS011;42713;42.676;23.352;2023-12-20T03:26:52;150.25;;;74.72;;
56830;SDS011;42713;42.676;23.352;2023-12-20T03:29:18;157.45;;;74.07;;
56830;SDS011;42713;42.676;23.352;2023-12-20T03:31:44;158.77;;;74.55;;
56830;SDS011;42713;42.676;23.352;2023-12-20T03:34:10;158.82;;;74.40;;
56830;SDS011;42713;42.676;23.352;2023-12-20T03:36:36;156.82;;;73.88;;
56830;SDS011;42713;42.676;23.352;2023-12-20T03:39:02;143.55;;;70.07;;
56830;SDS011;42713;42.676;23.352;2023-12-20T03:41:28;157.55;;;73.00;;
56830;SDS011;42713;42.676;23.352;2023-12-20T03:43:53;143.95;;;69.30;;
56830;SDS011;42713;42.676;23.352;2023-12-20T03:46:18;145.70;;;69.28;;
56830;SDS011;42713;42.676;23.352;2023-12-20T03:48:44;114.18;;;55.47;;
56830;SDS011;42713;42.676;23.352;2023-12-20T03:51:09;125.90;;;61.92;;
56830;SDS011;42713;42.676;23.352;2023-12-20T03:53:35;101.15;;;47.72;;
56830;SDS011;42713;42.676;23.352;2023-12-20T03:56:00;138.95;;;63.15;;
56830;SDS011;42713;42.676;23.352;2023-12-20T03:58:26;123.50;;;59.92;;
56830;SDS011;42713;42.676;23.352;2023-12-20T04:00:52;135.23;;;63.58;;
56830;SDS011;42713;42.676;23.352;2023-12-20T04:03:17;130.07;;;59.85;;
56830;SDS011;42713;42.676;23.352;2023-12-20T04:05:45;134.93;;;65.68;;
56830;SDS011;42713;42.676;23.352;2023-12-20T04:08:38;114.70;;;55.97;;
56830;SDS011;42713;42.676;23.352;2023-12-20T04:11:04;86.85;;;46.47;;
56830;SDS011;42713;42.676;23.352;2023-12-20T04:13:29;122.07;;;60.42;;
56830;SDS011;42713;42.676;23.352;2023-12-20T04:15:57;132.50;;;62.05;;
56830;SDS011;42713;42.676;23.352;2023-12-20T04:18:23;117.15;;;56.17;;
56830;SDS011;42713;42.676;23.352;2023-12-20T04:20:49;113.32;;;53.78;;
56830;SDS011;42713;42.676;23.352;2023-12-20T04:23:15;134.40;;;63.70;;
56830;SDS011;42713;42.676;23.352;2023-12-20T04:25:40;131.80;;;63.33;;
56830;SDS011;42713;42.676;23.352;2023-12-20T04:28:05;95.00;;;49.55;;
56830;SDS011;42713;42.676;23.352;2023-12-20T04:30:31;101.15;;;51.55;;
56830;SDS011;42713;42.676;23.352;2023-12-20T04:32:56;97.82;;;48.53;;
56830;SDS011;42713;42.676;23.352;2023-12-20T04:35:22;95.30;;;46.95;;
56830;SDS011;42713;42.676;23.352;2023-12-20T04:37:47;91.57;;;46.67;;
56830;SDS011;42713;42.676;23.352;2023-12-20T04:40:14;89.75;;;45.90;;
56830;SDS011;42713;42.676;23.352;2023-12-20T04:42:40;87.82;;;47.10;;
56830;SDS011;42713;42.676;23.352;2023-12-20T04:45:05;89.93;;;49.03;;
56830;SDS011;42713;42.676;23.352;2023-12-20T04:47:31;88.50;;;46.90;;
56830;SDS011;42713;42.676;23.352;2023-12-20T04:49:57;98.60;;;45.45;;
56830;SDS011;42713;42.676;23.352;2023-12-20T04:52:22;91.40;;;45.33;;
56830;SDS011;42713;42.676;23.352;2023-12-20T04:54:48;97.53;;;49.13;;
56830;SDS011;42713;42.676;23.352;2023-12-20T04:57:13;91.28;;;46.42;;
56830;SDS011;42713;42.676;23.352;2023-12-20T04:59:39;94.10;;;46.47;;
56830;SDS011;42713;42.676;23.352;2023-12-20T05:02:04;98.82;;;47.45;;
56830;SDS011;42713;42.676;23.352;2023-12-20T05:04:30;98.90;;;46.80;;
56830;SDS011;42713;42.676;23.352;2023-12-20T05:06:55;98.70;;;47.13;;
56830;SDS011;42713;42.676;23.352;2023-12-20T05:09:20;90.20;;;47.03;;
56830;SDS011;42713;42.676;23.352;2023-12-20T05:11:46;96.07;;;47.25;;
56830;SDS011;42713;42.676;23.352;2023-12-20T05:14:11;98.90;;;47.35;;
56830;SDS011;42713;42.676;23.352;2023-12-20T05:16:37;104.47;;;47.88;;
56830;SDS011;42713;42.676;23.352;2023-12-20T05:19:02;103.55;;;50.28;;
56830;SDS011;42713;42.676;23.352;2023-12-20T05:21:31;100.20;;;48.67;;
56830;SDS011;42713;42.676;23.352;2023-12-20T05:23:57;106.47;;;51.67;;
56830;SDS011;42713;42.676;23.352;2023-12-20T05:26:22;101.32;;;48.80;;
56830;SDS011;42713;42.676;23.352;2023-12-20T05:28:48;113.20;;;50.38;;
56830;SDS011;42713;42.676;23.352;2023-12-20T05:31:13;103.55;;;49.60;;
56830;SDS011;42713;42.676;23.352;2023-12-20T05:33:38;101.68;;;48.75;;
56830;SDS011;42713;42.676;23.352;2023-12-20T05:36:04;107.75;;;50.72;;
56830;SDS011;42713;42.676;23.352;2023-12-20T05:38:30;104.53;;;47.05;;
56830;SDS011;42713;42.676;23.352;2023-12-20T05:40:55;97.28;;;49.03;;
56830;SDS011;42713;42.676;23.352;2023-12-20T05:43:21;96.53;;;47.10;;
56830;SDS011;42713;42.676;23.352;2023-12-20T05:45:46;106.13;;;48.95;;
56830;SDS011;42713;42.676;23.352;2023-12-20T05:48:11;106.50;;;48.40;;
56830;SDS011;42713;42.676;23.352;2023-12-20T05:50:37;98.43;;;45.80;;
56830;SDS011;42713;42.676;23.352;2023-12-20T05:53:09;99.57;;;47.15;;
56830;SDS011;42713;42.676;23.352;2023-12-20T05:55:35;96.85;;;44.67;;
56830;SDS011;42713;42.676;23.352;2023-12-20T05:58:00;93.10;;;45.33;;
56830;SDS011;42713;42.676;23.352;2023-12-20T06:00:26;92.65;;;46.92;;
56830;SDS011;42713;42.676;23.352;2023-12-20T06:02:51;93.55;;;43.83;;
56830;SDS011;42713;42.676;23.352;2023-12-20T06:05:17;101.50;;;44.63;;
56830;SDS011;42713;42.676;23.352;2023-12-20T06:07:43;96.35;;;42.15;;
56830;SDS011;42713;42.676;23.352;2023-12-20T06:10:10;89.07;;;42.97;;
56830;SDS011;42713;42.676;23.352;2023-12-20T06:12:35;92.57;;;45.05;;
56830;SDS011;42713;42.676;23.352;2023-12-20T06:15:02;91.88;;;42.55;;
56830;SDS011;42713;42.676;23.352;2023-12-20T06:17:27;92.78;;;41.60;;
56830;SDS011;42713;42.676;23.352;2023-12-20T06:19:55;96.60;;;39.53;;
56830;SDS011;42713;42.676;23.352;2023-12-20T06:22:21;116.65;;;38.42;;
56830;SDS011;42713;42.676;23.352;2023-12-20T06:24:46;85.80;;;39.22;;
56830;SDS011;42713;42.676;23.352;2023-12-20T06:27:12;99.35;;;39.17;;
56830;SDS011;42713;42.676;23.352;2023-12-20T06:29:38;90.40;;;39.63;;
56830;SDS011;42713;42.676;23.352;2023-12-20T06:32:03;80.13;;;40.67;;
56830;SDS011;42713;42.676;23.352;2023-12-20T06:34:29;94.75;;;40.92;;
56830;SDS011;42713;42.676;23.352;2023-12-20T06:36:55;79.88;;;37.65;;
56830;SDS011;42713;42.676;23.352;2023-12-20T06:39:20;94.03;;;42.72;;
56830;SDS011;42713;42.676;23.352;2023-12-20T06:41:46;85.13;;;41.67;;
56830;SDS011;42713;42.676;23.352;2023-12-20T06:44:11;88.60;;;42.75;;
56830;SDS011;42713;42.676;23.352;2023-12-20T06:46:37;85.38;;;41.55;;
56830;SDS011;42713;42.676;23.352;2023-12-20T06:49:02;103.53;;;44.20;;
56830;SDS011;42713;42.676;23.352;2023-12-20T06:51:28;87.93;;;43.92;;
56830;SDS011;42713;42.676;23.352;2023-12-20T06:53:53;85.70;;;42.47;;
56830;SDS011;42713;42.676;23.352;2023-12-20T06:56:19;90.20;;;41.83;;
56830;SDS011;42713;42.676;23.352;2023-12-20T06:58:44;85.38;;;41.67;;
56830;SDS011;42713;42.676;23.352;2023-12-20T07:01:11;88.10;;;41.47;;
56830;SDS011;42713;42.676;23.352;2023-12-20T07:03:40;89.57;;;43.30;;
56830;SDS011;42713;42.676;23.352;2023-12-20T07:06:08;89.65;;;43.95;;
56830;SDS011;42713;42.676;23.352;2023-12-20T07:08:34;83.00;;;42.22;;
56830;SDS011;42713;42.676;23.352;2023-12-20T07:11:00;89.82;;;43.58;;
56830;SDS011;42713;42.676;23.352;2023-12-20T07:13:25;93.63;;;44.83;;
56830;SDS011;42713;42.676;23.352;2023-12-20T07:15:52;95.53;;;43.92;;
56830;SDS011;42713;42.676;23.352;2023-12-20T07:18:21;88.95;;;43.90;;
56830;SDS011;42713;42.676;23.352;2023-12-20T07:20:50;85.10;;;42.92;;
56830;SDS011;42713;42.676;23.352;2023-12-20T07:23:48;87.75;;;42.10;;
56830;SDS011;42713;42.676;23.352;2023-12-20T07:30:21;91.15;;;43.97;;
56830;SDS011;42713;42.676;23.352;2023-12-20T07:32:55;92.53;;;44.15;;
56830;SDS011;42713;42.676;23.352;2023-12-20T07:35:24;81.43;;;41.88;;
56830;SDS011;42713;42.676;23.352;2023-12-20T07:38:08;87.28;;;43.38;;
56830;SDS011;42713;42.676;23.352;2023-12-20T07:40:47;81.93;;;41.97;;
56830;SDS011;42713;42.676;23.352;2023-12-20T07:46:22;82.30;;;42.13;;
56830;SDS011;42713;42.676;23.352;2023-12-20T08:03:21;93.18;;;41.92;;
56830;SDS011;42713;42.676;23.352;2023-12-20T08:05:48;92.93;;;43.85;;
56830;SDS011;42713;42.676;23.352;2023-12-20T08:08:14;88.63;;;44.28;;
56830;SDS011;42713;42.676;23.352;2023-12-20T08:10:39;82.90;;;40.88;;
56830;SDS011;42713;42.676;23.352;2023-12-20T08:13:05;84.28;;;43.40;;
56830;SDS011;42713;42.676;23.352;2023-12-20T08:15:40;79.28;;;39.97;;
56830;SDS011;42713;42.676;23.352;2023-12-20T08:18:10;69.57;;;34.55;;
56830;SDS011;42713;42.676;23.352;2023-12-20T08:23:13;77.72;;;37.30;;
56830;SDS011;42713;42.676;23.352;2023-12-20T08:59:11;94.97;;;40.15;;
56830;SDS011;42713;42.676;23.352;2023-12-20T09:01:37;87.75;;;40.08;;
56830;SDS011;42713;42.676;23.352;2023-12-20T09:04:03;91.20;;;40.42;;
56830;SDS011;42713;42.676;23.352;2023-12-20T09:06:28;93.82;;;42.17;;
56830;SDS011;42713;42.676;23.352;2023-12-20T09:08:54;106.07;;;44.90;;
56830;SDS011;42713;42.676;23.352;2023-12-20T09:11:20;105.00;;;42.47;;
56830;SDS011;42713;42.676;23.352;2023-12-20T09:13:51;94.03;;;41.80;;
56830;SDS011;42713;42.676;23.352;2023-12-20T09:16:31;89.93;;;37.47;;
56830;SDS011;42713;42.676;23.352;2023-12-20T09:19:30;83.97;;;34.97;;
56830;SDS011;42713;42.676;23.352;2023-12-20T09:22:19;79.03;;;33.60;;
56830;SDS011;42713;42.676;23.352;2023-12-20T09:24:53;75.13;;;33.30;;
56830;SDS011;42713;42.676;23.352;2023-12-20T09:27:19;70.47;;;32.35;;
56830;SDS011;42713;42.676;23.352;2023-12-20T09:29:49;85.72;;;35.80;;
56830;SDS011;42713;42.676;23.352;2023-12-20T09:32:37;77.00;;;34.30;;
56830;SDS011;42713;42.676;23.352;2023-12-20T09:35:02;80.65;;;32.97;;
56830;SDS011;42713;42.676;23.352;2023-12-20T09:37:30;87.43;;;34.75;;
56830;SDS011;42713;42.676;23.352;2023-12-20T09:39:56;81.95;;;34.75;;
56830;SDS011;42713;42.676;23.352;2023-12-20T09:42:24;79.43;;;35.22;;
56830;SDS011;42713;42.676;23.352;2023-12-20T09:45:01;97.82;;;36.20;;
56830;SDS011;42713;42.676;23.352;2023-12-20T09:47:37;84.82;;;36.92;;
56830;SDS011;42713;42.676;23.352;2023-12-20T09:50:10;84.72;;;34.50;;
56830;SDS011;42713;42.676;23.352;2023-12-20T09:52:50;94.18;;;36.80;;
56830;SDS011;42713;42.676;23.352;2023-12-20T09:55:21;92.93;;;36.42;;
56830;SDS011;42713;42.676;23.352;2023-12-20T09:57:52;91.07;;;36.03;;
56830;SDS011;42713;42.676;23.352;2023-12-20T10:00:19;89.93;;;36.65;;
56830;SDS011;42713;42.676;23.352;2023-12-20T10:02:50;88.32;;;36.53;;
56830;SDS011;42713;42.676;23.352;2023-12-20T10:05:30;109.63;;;36.83;;
56830;SDS011;42713;42.676;23.352;2023-12-20T10:07:57;101.93;;;38.67;;
56830;SDS011;42713;42.676;23.352;2023-12-20T10:10:23;98.68;;;37.95;;
56830;SDS011;42713;42.676;23.352;2023-12-20T10:13:03;88.07;;;38.08;;
56830;SDS011;42713;42.676;23.352;2023-12-20T10:15:30;98.50;;;39.67;;
56830;SDS011;42713;42.676;23.352;2023-12-20T10:17:57;102.43;;;40.58;;
56830;SDS011;42713;42.676;23.352;2023-12-20T10:20:23;92.53;;;40.35;;
56830;SDS011;42713;42.676;23.352;2023-12-20T10:22:49;92.10;;;40.58;;
56830;SDS011;42713;42.676;23.352;2023-12-20T10:25:14;101.50;;;39.85;;
56830;SDS011;42713;42.676;23.352;2023-12-20T10:27:40;92.03;;;38.03;;
56830;SDS011;42713;42.676;23.352;2023-12-20T10:30:06;99.20;;;39.65;;
56830;SDS011;42713;42.676;23.352;2023-12-20T10:32:32;97.53;;;41.00;;
56830;SDS011;42713;42.676;23.352;2023-12-20T10:35:04;95.85;;;40.35;;
56830;SDS011;42713;42.676;23.352;2023-12-20T10:37:30;90.80;;;39.65;;
56830;SDS011;42713;42.676;23.352;2023-12-20T10:39:57;96.63;;;41.70;;
56830;SDS011;42713;42.676;23.352;2023-12-20T10:42:28;86.72;;;38.70;;
56830;SDS011;42713;42.676;23.352;2023-12-20T10:44:59;102.05;;;39.08;;
56830;SDS011;42713;42.676;23.352;2023-12-20T10:47:25;95.00;;;41.22;;
56830;SDS011;42713;42.676;23.352;2023-12-20T10:49:53;102.10;;;41.10;;
56830;SDS011;42713;42.676;23.352;2023-12-20T10:52:19;102.10;;;41.83;;
56830;SDS011;42713;42.676;23.352;2023-12-20T10:54:48;95.05;;;40.90;;
56830;SDS011;42713;42.676;23.352;2023-12-20T10:57:14;105.45;;;42.28;;
56830;SDS011;42713;42.676;23.352;2023-12-20T10:59:48;99.35;;;41.85;;
56830;SDS011;42713;42.676;23.352;2023-12-20T11:02:17;102.57;;;41.72;;
56830;SDS011;42713;42.676;23.352;2023-12-20T11:07:35;111.25;;;45.35;;
56830;SDS011;42713;42.676;23.352;2023-12-20T11:10:48;111.65;;;46.33;;
56830;SDS011;42713;42.676;23.352;2023-12-20T11:15:35;110.15;;;46.10;;
56830;SDS011;42713;42.676;23.352;2023-12-20T11:18:02;111.25;;;44.20;;
56830;SDS011;42713;42.676;23.352;2023-12-20T11:20:39;110.50;;;45.27;;
56830;SDS011;42713;42.676;23.352;2023-12-20T11:23:06;98.85;;;43.15;;
56830;SDS011;42713;42.676;23.352;2023-12-20T11:25:46;102.47;;;44.20;;
56830;SDS011;42713;42.676;23.352;2023-12-20T11:28:22;90.63;;;41.85;;
56830;SDS011;42713;42.676;23.352;2023-12-20T11:33:24;97.88;;;42.88;;
56830;SDS011;42713;42.676;23.352;2023-12-20T11:35:58;101.35;;;40.88;;
56830;SDS011;42713;42.676;23.352;2023-12-20T11:46:53;93.97;;;40.42;;
56830;SDS011;42713;42.676;23.352;2023-12-20T11:49:22;93.72;;;42.03;;
56830;SDS011;42713;42.676;23.352;2023-12-20T11:52:16;97.05;;;42.38;;
56830;SDS011;42713;42.676;23.352;2023-12-20T11:59:32;96.38;;;39.85;;
56830;SDS011;42713;42.676;23.352;2023-12-20T12:02:35;106.63;;;43.05;;
56830;SDS011;42713;42.676;23.352;2023-12-20T12:08:03;107.43;;;43.53;;
56830;SDS011;42713;42.676;23.352;2023-12-20T12:11:20;105.72;;;45.25;;
56830;SDS011;42713;42.676;23.352;2023-12-20T12:14:12;100.00;;;45.10;;
56830;SDS011;42713;42.676;23.352;2023-12-20T12:16:37;105.32;;;44.78;;
56830;SDS011;42713;42.676;23.352;2023-12-20T12:19:03;101.05;;;42.97;;
56830;SDS011;42713;42.676;23.352;2023-12-20T12:21:29;111.50;;;44.88;;
56830;SDS011;42713;42.676;23.352;2023-12-20T12:24:06;101.53;;;44.47;;
56830;SDS011;42713;42.676;23.352;2023-12-20T12:26:32;110.95;;;44.05;;
56830;SDS011;42713;42.676;23.352;2023-12-20T12:28:58;108.90;;;46.60;;
56830;SDS011;42713;42.676;23.352;2023-12-20T12:31:41;100.40;;;44.33;;
56830;SDS011;42713;42.676;23.352;2023-12-20T12:43:08;94.22;;;41.88;;
56830;SDS011;42713;42.676;23.352;2023-12-20T13:06:33;107.28;;;44.75;;
56830;SDS011;42713;42.676;23.352;2023-12-20T13:09:00;116.75;;;47.17;;
56830;SDS011;42713;42.676;23.352;2023-12-20T13:11:25;119.15;;;48.08;;
56830;SDS011;42713;42.676;23.352;2023-12-20T13:13:51;123.50;;;51.70;;
56830;SDS011;42713;42.676;23.352;2023-12-20T13:16:17;125.78;;;50.45;;
56830;SDS011;42713;42.676;23.352;2023-12-20T13:18:42;124.70;;;50.40;;
56830;SDS011;42713;42.676;23.352;2023-12-20T13:21:08;130.45;;;53.80;;
56830;SDS011;42713;42.676;23.352;2023-12-20T13:23:42;119.78;;;51.20;;
56830;SDS011;42713;42.676;23.352;2023-12-20T13:26:09;134.95;;;52.85;;
56830;SDS011;42713;42.676;23.352;2023-12-20T13:28:37;134.20;;;51.58;;
56830;SDS011;42713;42.676;23.352;2023-12-20T13:31:03;128.88;;;53.17;;
56830;SDS011;42713;42.676;23.352;2023-12-20T13:33:28;126.15;;;49.22;;
56830;SDS011;42713;42.676;23.352;2023-12-20T13:35:56;116.90;;;49.85;;
56830;SDS011;42713;42.676;23.352;2023-12-20T13:38:29;116.47;;;48.17;;
56830;SDS011;42713;42.676;23.352;2023-12-20T13:40:58;122.97;;;47.72;;
56830;SDS011;42713;42.676;23.352;2023-12-20T13:43:24;106.88;;;45.22;;
56830;SDS011;42713;42.676;23.352;2023-12-20T13:45:50;108.13;;;44.95;;
56830;SDS011;42713;42.676;23.352;2023-12-20T13:48:16;105.13;;;43.42;;
56830;SDS011;42713;42.676;23.352;2023-12-20T13:50:42;105.75;;;44.10;;
56830;SDS011;42713;42.676;23.352;2023-12-20T13:53:07;107.63;;;44.25;;
56830;SDS011;42713;42.676;23.352;2023-12-20T13:55:40;105.93;;;43.83;;
56830;SDS011;42713;42.676;23.352;2023-12-20T13:58:05;107.57;;;44.47;;
56830;SDS011;42713;42.676;23.352;2023-12-20T14:00:31;112.90;;;43.15;;
56830;SDS011;42713;42.676;23.352;2023-12-20T14:02:56;112.25;;;44.55;;
56830;SDS011;42713;42.676;23.352;2023-12-20T14:05:24;120.30;;;46.50;;
56830;SDS011;42713;42.676;23.352;2023-12-20T14:07:51;117.40;;;43.83;;
56830;SDS011;42713;42.676;23.352;2023-12-20T14:10:16;110.70;;;42.25;;
56830;SDS011;42713;42.676;23.352;2023-12-20T14:12:42;111.55;;;43.40;;
56830;SDS011;42713;42.676;23.352;2023-12-20T14:15:09;115.90;;;43.90;;
56830;SDS011;42713;42.676;23.352;2023-12-20T14:17:40;116.60;;;43.58;;
56830;SDS011;42713;42.676;23.352;2023-12-20T14:20:13;107.53;;;42.70;;
56830;SDS011;42713;42.676;23.352;2023-12-20T14:22:38;111.65;;;41.58;;
56830;SDS011;42713;42.676;23.352;2023-12-20T14:25:18;114.32;;;44.90;;
56830;SDS011;42713;42.676;23.352;2023-12-20T14:27:43;120.20;;;44.05;;
56830;SDS011;42713;42.676;23.352;2023-12-20T14:30:12;108.18;;;42.63;;
56830;SDS011;42713;42.676;23.352;2023-12-20T14:32:39;114.32;;;46.00;;
56830;SDS011;42713;42.676;23.352;2023-12-20T14:35:05;120.25;;;45.05;;
56830;SDS011;42713;42.676;23.352;2023-12-20T14:37:33;108.13;;;44.55;;
56830;SDS011;42713;42.676;23.352;2023-12-20T14:40:05;127.80;;;48.35;;
56830;SDS011;42713;42.676;23.352;2023-12-20T14:42:31;136.48;;;50.03;;
56830;SDS011;42713;42.676;23.352;2023-12-20T14:44:57;127.40;;;50.60;;
56830;SDS011;42713;42.676;23.352;2023-12-20T14:47:23;133.85;;;50.05;;
56830;SDS011;42713;42.676;23.352;2023-12-20T14:49:50;139.63;;;49.20;;
56830;SDS011;42713;42.676;23.352;2023-12-20T14:52:17;144.00;;;52.30;;
56830;SDS011;42713;42.676;23.352;2023-12-20T14:54:44;153.18;;;52.90;;
56830;SDS011;42713;42.676;23.352;2023-12-20T14:57:11;158.38;;;52.00;;
56830;SDS011;42713;42.676;23.352;2023-12-20T14:59:37;149.05;;;53.65;;
56830;SDS011;42713;42.676;23.352;2023-12-20T15:02:03;154.73;;;55.83;;
56830;SDS011;42713;42.676;23.352;2023-12-20T15:04:30;151.43;;;53.53;;
56830;SDS011;42713;42.676;23.352;2023-12-20T15:06:56;151.38;;;54.05;;
56830;SDS011;42713;42.676;23.352;2023-12-20T15:09:22;142.90;;;53.92;;
56830;SDS011;42713;42.676;23.352;2023-12-20T15:11:47;155.07;;;53.60;;
56830;SDS011;42713;42.676;23.352;2023-12-20T15:14:13;160.25;;;54.22;;
56830;SDS011;42713;42.676;23.352;2023-12-20T15:16:45;165.50;;;55.90;;
56830;SDS011;42713;42.676;23.352;2023-12-20T15:19:14;155.05;;;53.97;;
56830;SDS011;42713;42.676;23.352;2023-12-20T15:21:41;170.27;;;58.00;;
56830;SDS011;42713;42.676;23.352;2023-12-20T15:24:13;156.45;;;54.05;;
56830;SDS011;42713;42.676;23.352;2023-12-20T15:26:58;171.65;;;56.92;;
56830;SDS011;42713;42.676;23.352;2023-12-20T15:29:24;149.23;;;54.90;;
56830;SDS011;42713;42.676;23.352;2023-12-20T15:31:54;161.00;;;55.67;;
56830;SDS011;42713;42.676;23.352;2023-12-20T15:34:36;140.27;;;52.92;;
56830;SDS011;42713;42.676;23.352;2023-12-20T15:37:07;163.88;;;56.58;;
56830;SDS011;42713;42.676;23.352;2023-12-20T15:39:42;149.00;;;51.55;;
56830;SDS011;42713;42.676;23.352;2023-12-20T15:42:15;151.18;;;54.05;;
56830;SDS011;42713;42.676;23.352;2023-12-20T15:44:43;150.32;;;57.10;;
56830;SDS011;42713;42.676;23.352;2023-12-20T15:47:12;140.18;;;53.33;;
56830;SDS011;42713;42.676;23.352;2023-12-20T15:49:42;150.63;;;54.17;;
56830;SDS011;42713;42.676;23.352;2023-12-20T15:52:07;148.25;;;55.28;;
56830;SDS011;42713;42.676;23.352;2023-12-20T15:54:33;145.57;;;54.15;;
56830;SDS011;42713;42.676;23.352;2023-12-20T15:57:11;134.35;;;50.28;;
56830;SDS011;42713;42.676;23.352;2023-12-20T15:59:52;140.67;;;56.47;;